This is the latest recevied weather packets stored in our database for station/object KP4FJC. If no packets are shown the sender has not sent any weather packets the latest 1 day(s).
| Time | Temp. | Humidity | Pressure | Rain* | Wind** | Luminosity | Snow |
|---|---|---|---|---|---|---|---|
| 1778010445 | 31.67° C | 59% | 1016.6 hPa | 0 mm | 2.24 m/s, 73° | 533 W/m² | - |
| 1778010141 | 32.22° C | 58% | 1016.7 hPa | 0 mm | 3.13 m/s, 77° | 555 W/m² | - |
| 1778009837 | 31.67° C | 58% | 1016.7 hPa | 0 mm | 0.89 m/s, 27° | 573 W/m² | - |
| 1778009534 | 31.67° C | 57% | 1016.8 hPa | 0 mm | 3.58 m/s, 43° | 593 W/m² | - |
| 1778009233 | 32.22° C | 58% | 1016.8 hPa | 0 mm | 3.13 m/s, 110° | 606 W/m² | - |
| 1778008929 | 31.67° C | 58% | 1016.7 hPa | 0 mm | 1.79 m/s, 126° | 627 W/m² | - |
| 1778008628 | 32.22° C | 59% | 1016.8 hPa | 0 mm | 1.79 m/s, 122° | 645 W/m² | - |
| 1778008325 | 32.22° C | 59% | 1016.9 hPa | 0 mm | 1.79 m/s, 117° | 663 W/m² | - |
| 1778008021 | 32.22° C | 58% | 1016.7 hPa | 0 mm | 3.13 m/s, 76° | 682 W/m² | - |
| 1778007716 | 32.78° C | 56% | 1017 hPa | 0 mm | 0.89 m/s, 336° | 701 W/m² | - |
| 1778007413 | 32.78° C | 57% | 1016.9 hPa | 0 mm | 2.68 m/s, 133° | 725 W/m² | - |
| 1778007109 | 32.78° C | 56% | 1017 hPa | 0 mm | 0.45 m/s, 63° | 735 W/m² | - |
| 1778006806 | 32.78° C | 57% | 1017.1 hPa | 0 mm | 3.58 m/s, 203° | 756 W/m² | - |
| 1778006503 | 32.22° C | 58% | 1017.3 hPa | 0 mm | 2.24 m/s, 114° | 770 W/m² | - |
| 1778006200 | 32.22° C | 57% | 1017 hPa | 0 mm | 4.02 m/s, 106° | 790 W/m² | - |
| 1778005897 | 31.67° C | 57% | 1017 hPa | 0 mm | 1.34 m/s, 88° | 812 W/m² | - |
| 1778005593 | 32.78° C | 55% | 1017.3 hPa | 0 mm | 3.13 m/s, 76° | 805 W/m² | - |
| 1778005290 | 32.78° C | 57% | 1017.1 hPa | 0 mm | 0.89 m/s, 76° | 810 W/m² | - |
| 1778004987 | 33.33° C | 56% | 1017.3 hPa | 0 mm | 0.45 m/s, 205° | 827 W/m² | - |
| 1778004684 | 33.33° C | 55% | 1017.4 hPa | 0 mm | 0.89 m/s, 154° | 849 W/m² | - |
| 1778004380 | 32.78° C | 56% | 1017.6 hPa | 0 mm | 4.92 m/s, 91° | 860 W/m² | - |
| 1778004078 | 32.22° C | 61% | 1017.6 hPa | 0 mm | 4.92 m/s, 144° | 860 W/m² | - |
| 1778003774 | 32.22° C | 61% | 1017.5 hPa | 0 mm | 1.34 m/s, 187° | 860 W/m² | - |
| 1778003470 | 32.78° C | 58% | 1017.8 hPa | 0 mm | 3.13 m/s, 50° | 883 W/m² | - |
| 1778003167 | 31.67° C | 61% | 1017.8 hPa | 0 mm | 4.92 m/s, 157° | 891 W/m² | - |
* Rain latest hour (hover to see other rain measurements)
** Current wind speed in m/s (hover to see current wind gust speed)